createdAt,value
2022-10-02T00:00:08.137Z,1999.90
2022-10-02T00:02:43.410Z,1892.82
2022-10-02T00:05:25.046Z,1988.93
2022-10-02T00:10:21.462Z,1789.18
2022-10-02T00:12:50.567Z,1923.55
2022-10-02T00:15:19.657Z,1912.03
2022-10-02T00:17:48.639Z,1749.32
2022-10-02T00:20:17.507Z,1927.97
2022-10-02T00:22:52.464Z,1982.05
2022-10-02T00:25:25.558Z,1999.90
2022-10-02T00:27:58.432Z,1694.13
2022-10-02T00:30:25.591Z,1841.07
2022-10-02T00:33:13.313Z,1845.25
2022-10-02T00:35:43.366Z,1831.82
2022-10-02T00:38:16.357Z,1858.68
2022-10-02T00:40:50.818Z,1921.80
2022-10-02T00:43:32.908Z,1872.90
2022-10-02T00:46:12.458Z,1876.35
2022-10-02T00:48:49.335Z,1880.80
2022-10-02T00:51:22.134Z,1976.93
2022-10-02T00:54:07.893Z,1951.40
2022-10-02T00:56:43.561Z,1925.88
2022-10-02T00:59:27.340Z,1928.10
2022-10-02T01:02:00.582Z,1965.25
2022-10-02T01:04:32.602Z,1849.07
2022-10-02T01:06:59.771Z,1907.25
2022-10-02T01:09:26.983Z,1926.47
2022-10-02T01:11:54.118Z,1859.40
2022-10-02T01:14:21.198Z,1966.15
2022-10-02T01:16:48.806Z,1999.40
2022-10-02T01:19:26.516Z,1958.03
2022-10-02T01:21:56.969Z,1838.45
2022-10-02T01:24:28.048Z,1926.90
2022-10-02T01:26:55.235Z,1959.72
2022-10-02T01:29:22.510Z,1949.45
2022-10-02T01:31:49.690Z,1821.10
2022-10-02T01:34:16.928Z,1938.05
2022-10-02T01:36:44.091Z,1786.82
2022-10-02T01:39:11.388Z,1829.97
2022-10-02T01:41:42.015Z,1933.63
2022-10-02T01:44:09.135Z,1701.73
2022-10-02T01:46:47.648Z,1828.97
2022-10-02T01:49:20.544Z,1929.32
2022-10-02T01:51:47.593Z,1969.85
2022-10-02T01:54:14.624Z,1820.53
2022-10-02T01:57:00.555Z,1917.80
2022-10-02T01:59:27.598Z,1915.13
2022-10-02T02:02:10.501Z,1819.75
2022-10-02T02:04:37.589Z,1837.32
2022-10-02T02:07:07.690Z,1844.63
2022-10-02T02:09:43.520Z,1994.72
2022-10-02T02:12:21.471Z,1940.53
2022-10-02T02:14:51.331Z,1982.03
2022-10-02T02:17:18.414Z,1982.43
2022-10-02T02:20:01.997Z,1999.90
2022-10-02T02:22:30.391Z,1801.57
2022-10-02T02:25:07.873Z,1937.20
2022-10-02T02:27:38.576Z,1971.65
2022-10-02T02:30:11.931Z,1482.88
2022-10-02T02:32:42.059Z,1700.50
2022-10-02T02:35:15.502Z,1760.65
2022-10-02T02:37:43.340Z,1896.93
2022-10-02T02:40:13.989Z,1556.70
2022-10-02T02:42:46.818Z,1658.90
2022-10-02T02:45:17.063Z,1540.05
2022-10-02T02:47:48.529Z,1734.00
2022-10-02T02:52:45.553Z,1882.05
2022-10-02T02:55:31.524Z,1859.38
2022-10-02T02:58:08.400Z,1555.70
2022-10-02T03:00:35.582Z,1722.72
2022-10-02T03:03:03.135Z,1795.13
2022-10-02T03:05:30.889Z,1805.40
2022-10-02T03:08:00.334Z,1668.00
2022-10-02T03:10:40.634Z,1832.47
2022-10-02T03:13:27.472Z,1879.88
2022-10-02T03:16:19.241Z,1906.10
2022-10-02T03:21:21.604Z,1666.70
2022-10-02T03:24:07.386Z,1654.20
2022-10-02T03:26:45.146Z,1799.00
2022-10-02T03:29:19.763Z,1923.68
2022-10-02T03:31:47.263Z,1841.03
2022-10-02T03:34:14.519Z,1863.47
2022-10-02T03:36:41.737Z,1825.63
2022-10-02T03:39:25.869Z,1953.22
2022-10-02T03:41:53.979Z,1876.90
2022-10-02T03:44:21.106Z,1938.35
2022-10-02T03:46:48.261Z,1867.97
2022-10-02T03:49:15.364Z,1929.60
2022-10-02T03:51:42.471Z,1959.18
2022-10-02T03:54:16.652Z,1957.13
2022-10-02T03:56:46.508Z,1983.63
2022-10-02T03:59:17.062Z,1962.22
2022-10-02T04:01:49.221Z,1838.13
2022-10-02T04:04:24.406Z,1851.88
2022-10-02T04:07:01.519Z,1859.25
2022-10-02T04:09:30.702Z,1948.50
2022-10-02T04:12:04.400Z,1965.10
2022-10-02T04:14:35.924Z,1831.75
2022-10-02T04:19:34.266Z,1997.03
2022-10-02T04:22:01.294Z,1674.35
2022-10-02T04:24:42.766Z,1802.65
2022-10-02T04:27:19.029Z,1944.78
2022-10-02T04:29:51.397Z,1922.10
2022-10-02T04:32:19.822Z,1886.68
2022-10-02T04:34:47.018Z,1975.05
2022-10-02T04:37:29.319Z,1922.95
2022-10-02T04:40:11.254Z,1927.25
2022-10-02T04:42:46.774Z,1955.55
2022-10-02T04:45:13.813Z,1638.43
2022-10-02T04:48:06.964Z,1608.35
2022-10-02T04:51:00.894Z,1779.90
2022-10-02T04:53:30.741Z,1870.90
2022-10-02T04:56:04.157Z,1920.70
2022-10-02T04:58:38.028Z,1684.95
2022-10-02T05:01:27.789Z,1897.53
2022-10-02T05:03:54.814Z,1707.38
2022-10-02T05:06:51.283Z,1852.18
2022-10-02T05:09:18.325Z,1932.10
2022-10-02T05:11:49.866Z,1954.47
2022-10-02T05:16:59.180Z,1999.90
2022-10-02T05:19:36.996Z,1999.90
2022-10-02T05:22:25.483Z,1999.90
2022-10-02T05:24:58.627Z,1996.82
2022-10-02T05:27:26.061Z,1834.78
2022-10-02T05:30:07.203Z,1988.53
2022-10-02T05:32:37.013Z,1617.72
2022-10-02T05:35:04.098Z,1837.88
2022-10-02T05:37:37.269Z,1818.72
2022-10-02T05:40:11.242Z,1938.45
2022-10-02T05:42:43.316Z,1983.70
2022-10-02T05:45:17.568Z,1968.97
2022-10-02T05:47:46.361Z,1669.85
2022-10-02T05:50:18.160Z,1805.10
2022-10-02T05:52:54.416Z,1829.55
2022-10-02T05:55:38.415Z,1944.97
2022-10-02T05:58:24.267Z,1984.63
2022-10-02T06:01:09.976Z,1690.50
2022-10-02T06:03:43.759Z,1833.95
2022-10-02T06:06:12.108Z,1999.90
2022-10-02T06:08:41.586Z,1999.90
2022-10-02T06:11:12.121Z,1999.90
2022-10-02T06:13:48.199Z,1977.93
2022-10-02T06:16:20.565Z,1978.95
2022-10-02T06:18:51.435Z,1927.13
2022-10-02T06:21:47.751Z,1916.10
2022-10-02T06:24:21.577Z,1996.18
2022-10-02T06:26:54.699Z,1999.90
2022-10-02T06:29:30.858Z,1999.57
2022-10-02T06:32:00.751Z,1999.90
2022-10-02T06:34:29.042Z,1967.75
2022-10-02T06:37:09.014Z,1988.60
2022-10-02T06:40:00.516Z,1873.20
2022-10-02T06:42:32.583Z,1955.25
2022-10-02T06:45:09.121Z,1911.47
2022-10-02T06:47:36.152Z,1958.28
2022-10-02T06:50:21.279Z,1722.10
2022-10-02T06:52:57.187Z,1529.93
2022-10-02T06:55:33.060Z,1480.93
2022-10-02T06:58:08.709Z,1545.28
2022-10-02T07:00:39.980Z,1664.05
2022-10-02T07:03:30.455Z,1734.28
2022-10-02T07:05:57.508Z,1603.72
2022-10-02T07:08:37.864Z,1542.57
2022-10-02T07:11:04.934Z,1513.43
2022-10-02T07:13:44.179Z,1647.40
2022-10-02T07:16:20.774Z,1564.75
2022-10-02T07:19:06.681Z,1723.82
2022-10-02T07:21:33.719Z,1831.93
2022-10-02T07:24:05.367Z,1903.40
2022-10-02T07:26:52.703Z,1851.78
2022-10-02T07:29:38.596Z,1881.88
2022-10-02T07:32:17.516Z,1745.18
2022-10-02T07:34:51.923Z,1937.20
2022-10-02T07:37:22.142Z,1730.97
2022-10-02T07:39:49.203Z,1703.70
2022-10-02T07:42:21.746Z,1895.22
2022-10-02T07:44:48.786Z,1920.47
2022-10-02T07:47:18.993Z,1765.10
2022-10-02T07:49:51.514Z,1746.80
2022-10-02T07:52:18.539Z,1651.43
2022-10-02T07:54:57.393Z,1746.22
2022-10-02T07:57:36.643Z,1786.18
2022-10-02T08:00:14.967Z,1866.97
2022-10-02T08:02:57.848Z,1918.50
2022-10-02T08:05:27.423Z,1527.63
2022-10-02T08:07:58.416Z,1587.50
2022-10-02T08:10:27.405Z,1714.45
2022-10-02T08:12:55.935Z,1802.75
2022-10-02T08:15:24.610Z,1671.22
2022-10-02T08:17:54.951Z,1826.85
2022-10-02T08:20:24.519Z,1801.03
2022-10-02T08:25:25.056Z,1553.03
2022-10-02T08:30:19.217Z,1689.32
2022-10-02T08:32:47.929Z,1517.18
2022-10-02T08:35:19.754Z,1685.20
2022-10-02T08:38:10.074Z,1494.22
2022-10-02T08:40:55.830Z,1666.72
2022-10-02T08:43:29.187Z,1706.32
2022-10-02T08:46:15.254Z,1697.65
2022-10-02T08:48:55.247Z,1729.45
2022-10-02T08:51:42.597Z,1541.57
2022-10-02T08:54:22.033Z,1749.68
2022-10-02T08:57:01.866Z,1835.13
2022-10-02T08:59:31.922Z,1396.95
2022-10-02T09:02:19.844Z,1506.10
2022-10-02T09:04:49.964Z,1303.13
2022-10-02T09:07:36.332Z,1457.47
2022-10-02T09:10:21.496Z,1671.53
2022-10-02T09:13:00.825Z,1485.25
2022-10-02T09:15:39.349Z,1634.57
2022-10-02T09:18:16.200Z,1338.82
2022-10-02T09:20:43.332Z,1472.75
2022-10-02T09:23:16.502Z,1653.35
2022-10-02T09:25:43.531Z,1460.78
2022-10-02T09:28:33.972Z,1656.38
2022-10-02T09:31:14.260Z,1681.57
2022-10-02T09:34:03.597Z,1750.82
2022-10-02T09:36:42.627Z,1826.43
2022-10-02T09:39:15.579Z,1791.78
2022-10-02T09:41:59.153Z,1741.97
2022-10-02T09:44:38.271Z,1655.60
2022-10-02T09:47:24.125Z,1757.95
2022-10-02T09:49:51.857Z,1551.80
2022-10-02T09:52:42.010Z,1433.22
2022-10-02T09:55:29.246Z,1518.15
2022-10-02T09:57:59.309Z,1524.78
2022-10-02T10:00:44.368Z,1482.95
2022-10-02T10:03:30.480Z,1405.03
2022-10-02T10:06:16.349Z,1512.43
2022-10-02T10:08:55.644Z,1489.38
2022-10-02T10:11:22.679Z,1343.00
2022-10-02T10:13:55.953Z,1500.68
2022-10-02T10:16:35.124Z,1492.97
2022-10-02T10:19:23.696Z,1242.43
2022-10-02T10:21:53.782Z,1408.43
2022-10-02T10:24:32.747Z,1503.82
2022-10-02T10:27:24.165Z,1530.70
2022-10-02T10:29:57.808Z,1555.78
2022-10-02T10:32:43.592Z,1560.63
2022-10-02T10:35:29.418Z,1476.93
2022-10-02T10:38:23.253Z,1358.22
2022-10-02T10:41:11.040Z,1520.82
2022-10-02T10:43:41.979Z,1404.95
2022-10-02T10:46:12.193Z,1505.13
2022-10-02T10:48:48.543Z,1531.32
2022-10-02T10:51:33.563Z,1374.43
2022-10-02T10:54:22.578Z,1403.20
2022-10-02T10:57:00.196Z,1112.43
2022-10-02T10:59:27.317Z,1137.50
2022-10-02T11:01:54.373Z,1248.78
2022-10-02T11:04:54.183Z,955.53
2022-10-02T11:07:39.962Z,984.58
2022-10-02T11:10:22.508Z,1055.15
2022-10-02T11:12:53.797Z,1003.65
2022-10-02T11:15:39.367Z,992.42
2022-10-02T11:18:30.955Z,1035.03
2022-10-02T11:23:43.445Z,770.65
2022-10-02T11:26:16.281Z,815.55
2022-10-02T11:29:02.005Z,857.63
2022-10-02T11:31:42.754Z,863.92
2022-10-02T11:34:28.767Z,575.00
2022-10-02T11:37:12.123Z,825.00
2022-10-02T11:39:54.430Z,647.08
2022-10-02T11:42:33.669Z,652.67
2022-10-02T11:45:39.269Z,805.50
2022-10-02T11:48:12.398Z,786.00
2022-10-02T11:50:42.363Z,783.70
2022-10-02T11:53:18.488Z,827.25
2022-10-02T11:55:53.581Z,899.38
2022-10-02T11:58:28.372Z,665.22
2022-10-02T12:00:56.130Z,796.67
2022-10-02T12:03:23.270Z,821.63
2022-10-02T12:05:58.864Z,918.58
2022-10-02T12:08:46.993Z,883.22
2022-10-02T12:11:34.404Z,878.92
2022-10-02T12:14:04.846Z,893.83
2022-10-02T12:16:38.666Z,921.88
2022-10-02T12:20:01.374Z,785.88
2022-10-02T12:22:53.470Z,834.28
2022-10-02T12:25:49.127Z,869.00
2022-10-02T12:28:31.566Z,733.10
2022-10-02T12:31:01.610Z,777.47
2022-10-02T12:33:56.469Z,772.05
2022-10-02T12:36:34.790Z,871.65
2022-10-02T12:39:08.728Z,668.55
2022-10-02T12:41:41.791Z,809.90
2022-10-02T12:44:18.466Z,857.03
2022-10-02T12:47:03.716Z,863.83
2022-10-02T12:49:50.685Z,899.05
2022-10-02T12:52:29.717Z,925.05
2022-10-02T12:54:56.793Z,955.35
2022-10-02T12:58:02.521Z,754.47
2022-10-02T13:00:48.433Z,859.08
2022-10-02T13:03:18.640Z,894.65
2022-10-02T13:05:47.022Z,881.50
2022-10-02T13:08:25.348Z,871.25
2022-10-02T13:11:07.681Z,860.33
2022-10-02T13:13:41.455Z,914.40
2022-10-02T13:16:26.762Z,956.05
2022-10-02T13:18:55.376Z,936.58
2022-10-02T13:21:46.864Z,922.97
2022-10-02T13:24:32.623Z,972.22
2022-10-02T13:27:16.947Z,997.78
2022-10-02T13:29:47.833Z,987.22
2022-10-02T13:32:15.139Z,724.55
2022-10-02T13:34:45.352Z,836.63
2022-10-02T13:37:30.606Z,885.55
2022-10-02T13:40:17.217Z,773.47
2022-10-02T13:42:55.319Z,720.63
2022-10-02T13:45:29.887Z,1012.55
2022-10-02T13:48:05.718Z,831.63
2022-10-02T13:50:42.107Z,917.50
2022-10-02T13:53:18.753Z,1024.45
2022-10-02T13:55:48.149Z,811.42
2022-10-02T13:58:24.254Z,872.97
2022-10-02T14:01:04.593Z,883.53
2022-10-02T14:03:44.422Z,954.17
2022-10-02T14:06:12.219Z,1060.78
2022-10-02T14:08:55.078Z,1010.47
2022-10-02T14:11:29.908Z,1068.05
2022-10-02T14:14:09.145Z,1051.95
2022-10-02T14:16:45.690Z,1065.45
2022-10-02T14:19:28.117Z,1098.55
2022-10-02T14:21:55.297Z,1060.10
2022-10-02T14:24:45.332Z,1064.30
2022-10-02T14:27:31.099Z,1009.85
2022-10-02T14:30:07.880Z,1009.33
2022-10-02T14:32:56.722Z,909.80
2022-10-02T14:35:27.510Z,963.60
2022-10-02T14:38:10.991Z,922.83
2022-10-02T14:40:54.276Z,1080.53
2022-10-02T14:43:21.374Z,1131.03
2022-10-02T14:45:55.689Z,1065.18
2022-10-02T14:48:22.814Z,1025.65
2022-10-02T14:50:49.885Z,1130.28
2022-10-02T14:53:29.342Z,1125.10
2022-10-02T14:56:14.738Z,1115.78
2022-10-02T14:58:56.518Z,1104.85
2022-10-02T15:01:24.706Z,1149.65
2022-10-02T15:04:07.953Z,873.42
2022-10-02T15:06:38.149Z,1012.28
2022-10-02T15:09:08.074Z,1118.63
2022-10-02T15:11:38.967Z,1148.50
2022-10-02T15:14:09.464Z,1006.30
2022-10-02T15:17:02.156Z,972.80
2022-10-02T15:19:35.184Z,943.13
2022-10-02T15:22:06.028Z,1021.80
2022-10-02T15:24:40.686Z,1041.25
2022-10-02T15:27:17.094Z,835.67
2022-10-02T15:29:53.302Z,1012.85
2022-10-02T15:32:35.436Z,1162.32
2022-10-02T15:35:08.726Z,811.42
2022-10-02T15:37:56.136Z,934.03
2022-10-02T15:40:29.854Z,1104.78
2022-10-02T15:42:58.857Z,1270.25
2022-10-02T15:45:27.645Z,1242.78
2022-10-02T15:48:10.131Z,1057.60
2022-10-02T15:50:55.826Z,1011.35
2022-10-02T15:53:25.958Z,1134.60
2022-10-02T15:55:55.884Z,1261.55
2022-10-02T15:58:28.964Z,1249.22
2022-10-02T16:01:02.464Z,1263.55
2022-10-02T16:03:40.159Z,1154.30
2022-10-02T16:06:13.574Z,794.60
2022-10-02T16:08:58.134Z,938.90
2022-10-02T16:11:25.267Z,1109.72
2022-10-02T16:13:52.410Z,1196.90
2022-10-02T16:16:25.959Z,1333.88
2022-10-02T16:19:18.999Z,1405.80
2022-10-02T16:21:57.077Z,1423.28
2022-10-02T16:24:36.204Z,1409.45
2022-10-02T16:27:03.268Z,1462.68
2022-10-02T16:29:49.145Z,1225.38
2022-10-02T16:32:26.555Z,1472.68
2022-10-02T16:35:12.170Z,1562.75
2022-10-02T16:38:02.561Z,1548.07
2022-10-02T16:40:49.914Z,1582.10
2022-10-02T16:43:23.348Z,1595.97
2022-10-02T16:46:11.623Z,1556.82
2022-10-02T16:48:44.214Z,1577.72
2022-10-02T16:51:34.074Z,1512.28
2022-10-02T16:54:03.938Z,1124.28
2022-10-02T16:56:41.243Z,1406.05
2022-10-02T16:59:14.868Z,1549.13
2022-10-02T17:02:12.806Z,1507.63
2022-10-02T17:04:38.321Z,1557.65
2022-10-02T17:07:08.140Z,1474.75
2022-10-02T17:09:41.241Z,1508.60
2022-10-02T17:12:14.808Z,1188.60
2022-10-02T17:14:55.696Z,1403.45
2022-10-02T17:17:47.144Z,1159.68
2022-10-02T17:20:26.235Z,1269.65
2022-10-02T17:23:02.998Z,1309.13
2022-10-02T17:25:33.000Z,1302.28
2022-10-02T17:28:20.420Z,1404.60
2022-10-02T17:30:47.547Z,1268.05
2022-10-02T17:33:14.584Z,1284.20
2022-10-02T17:35:48.108Z,1512.72
2022-10-02T17:38:24.134Z,1299.53
2022-10-02T17:41:06.515Z,1335.47
2022-10-02T17:43:39.463Z,1335.38
2022-10-02T17:46:25.366Z,1211.35
2022-10-02T17:49:12.805Z,1441.72
2022-10-02T17:51:53.649Z,1388.07
2022-10-02T17:54:42.386Z,1431.20
2022-10-02T17:57:31.026Z,1299.05
2022-10-02T18:00:02.882Z,1444.38
2022-10-02T18:02:33.892Z,1364.30
2022-10-02T18:05:13.505Z,1458.80
2022-10-02T18:07:48.214Z,1514.38
2022-10-02T18:10:31.011Z,1530.22
2022-10-02T18:13:14.987Z,1600.32
2022-10-02T18:15:45.272Z,1636.20
2022-10-02T18:18:19.395Z,1604.38
2022-10-02T18:20:52.395Z,1658.95
2022-10-02T18:23:30.922Z,1674.45
2022-10-02T18:26:05.243Z,1599.90
2022-10-02T18:28:51.122Z,1604.70
2022-10-02T18:31:54.099Z,1288.57
2022-10-02T18:34:26.614Z,1632.68
2022-10-02T18:37:17.006Z,1651.13
2022-10-02T18:39:50.945Z,1478.90
2022-10-02T18:42:33.958Z,1663.43
2022-10-02T18:45:25.119Z,1650.55
2022-10-02T18:48:19.666Z,1739.20
2022-10-02T18:51:06.456Z,1608.78
2022-10-02T18:53:39.629Z,1668.93
2022-10-02T18:56:07.819Z,1679.63
2022-10-02T18:58:58.389Z,1499.60
2022-10-02T19:01:43.871Z,1656.95
2022-10-02T19:04:19.381Z,1621.30
2022-10-02T19:07:06.700Z,1750.15
2022-10-02T19:09:33.841Z,1924.93
2022-10-02T19:12:06.316Z,1979.32
2022-10-02T19:14:41.423Z,1756.72
2022-10-02T19:17:16.859Z,1775.45
2022-10-02T19:19:44.679Z,1777.57
2022-10-02T19:22:19.752Z,1620.10
2022-10-02T19:24:48.828Z,1737.50
2022-10-02T19:27:23.174Z,1808.35
2022-10-02T19:29:58.011Z,1812.57
2022-10-02T19:32:32.131Z,1817.00
2022-10-02T19:34:59.192Z,1782.90
2022-10-02T19:37:26.998Z,1805.65
2022-10-02T19:39:55.739Z,1999.90
2022-10-02T19:42:26.781Z,1782.45
2022-10-02T19:45:01.253Z,1898.13
2022-10-02T19:47:32.276Z,1921.97
2022-10-02T19:50:00.878Z,1934.32
2022-10-02T19:52:35.901Z,1969.35
2022-10-02T19:55:05.227Z,1949.30
2022-10-02T19:57:36.154Z,1999.90
2022-10-02T20:00:03.686Z,1999.90
2022-10-02T20:02:37.984Z,1875.20
2022-10-02T20:05:07.794Z,1954.60
2022-10-02T20:07:37.493Z,1960.47
2022-10-02T20:10:11.530Z,1869.47
2022-10-02T20:12:41.441Z,1978.40
2022-10-02T20:15:17.499Z,1979.35
2022-10-02T20:17:44.649Z,1880.35
2022-10-02T20:20:16.166Z,1999.90
2022-10-02T20:25:15.161Z,1999.90
2022-10-02T20:27:42.298Z,1999.90
2022-10-02T20:30:20.120Z,1863.35
2022-10-02T20:32:50.685Z,1999.90
2022-10-02T20:35:34.653Z,1952.93
2022-10-02T20:38:10.861Z,1829.18
2022-10-02T20:40:38.196Z,1999.90
2022-10-02T20:43:26.194Z,1999.90
2022-10-02T20:46:13.603Z,1999.90
2022-10-02T20:49:06.837Z,1974.13
2022-10-02T20:51:52.910Z,1971.72
2022-10-02T20:54:23.491Z,1910.63
2022-10-02T20:56:59.299Z,1922.28
2022-10-02T20:59:32.659Z,1999.90
2022-10-02T21:01:59.741Z,1848.65
2022-10-02T21:04:45.430Z,1793.45
2022-10-02T21:07:34.933Z,1873.90
2022-10-02T21:10:11.059Z,1925.07
2022-10-02T21:13:00.416Z,1840.00
2022-10-02T21:15:46.321Z,1927.40
2022-10-02T21:18:26.957Z,1973.53
2022-10-02T21:21:06.261Z,1957.28
2022-10-02T21:23:33.321Z,1954.22
2022-10-02T21:26:18.972Z,1659.68
2022-10-02T21:28:46.115Z,1751.63
2022-10-02T21:31:13.192Z,1860.65
2022-10-02T21:33:41.295Z,1842.95
2022-10-02T21:36:09.790Z,1486.53
2022-10-02T21:38:55.206Z,1714.53
2022-10-02T21:41:25.394Z,1737.55
2022-10-02T21:44:04.689Z,1689.25
2022-10-02T21:46:32.340Z,1668.72
2022-10-02T21:49:18.177Z,1422.03
2022-10-02T21:52:04.656Z,1913.40
2022-10-02T21:54:50.209Z,1999.90
2022-10-02T21:57:39.953Z,1999.90
2022-10-02T22:00:23.910Z,1999.90
2022-10-02T22:02:51.026Z,1959.78
2022-10-02T22:05:21.380Z,1992.95
2022-10-02T22:07:55.438Z,1999.90
2022-10-02T22:10:25.815Z,1999.90
2022-10-02T22:12:59.071Z,1999.90
2022-10-02T22:15:32.716Z,1967.05
2022-10-02T22:18:02.675Z,1993.45
2022-10-02T22:20:32.809Z,1955.43
2022-10-02T22:23:18.647Z,1974.07
2022-10-02T22:25:58.649Z,1948.43
2022-10-02T22:28:45.542Z,1939.07
2022-10-02T22:31:12.663Z,1954.80
2022-10-02T22:33:58.758Z,1981.22
2022-10-02T22:36:44.822Z,1976.55
2022-10-02T22:39:11.886Z,1992.03
2022-10-02T22:41:42.523Z,1964.13
2022-10-02T22:44:28.544Z,1741.80
2022-10-02T22:46:58.920Z,1882.00
2022-10-02T22:49:32.765Z,1816.05
2022-10-02T22:52:03.597Z,1815.20
2022-10-02T22:54:31.013Z,1846.50
2022-10-02T22:57:04.107Z,1826.65
2022-10-02T22:59:47.133Z,1806.22
2022-10-02T23:02:40.629Z,1773.95
2022-10-02T23:05:17.971Z,1778.20
2022-10-02T23:07:47.577Z,1999.90
2022-10-02T23:10:44.018Z,1942.20
2022-10-02T23:13:11.140Z,1782.80
2022-10-02T23:15:43.680Z,1892.07
2022-10-02T23:18:37.425Z,1912.35
2022-10-02T23:21:07.474Z,1865.68
2022-10-02T23:23:43.487Z,1824.82
2022-10-02T23:26:17.305Z,1999.90
2022-10-02T23:28:48.018Z,1999.90
2022-10-02T23:31:21.872Z,1999.90
2022-10-02T23:33:49.095Z,1999.90
2022-10-02T23:36:30.301Z,1999.90
2022-10-02T23:38:57.449Z,1999.90
2022-10-02T23:41:46.573Z,1999.90
2022-10-02T23:44:32.364Z,1999.90
2022-10-02T23:47:02.631Z,1999.90
2022-10-02T23:49:56.002Z,1999.90
2022-10-02T23:52:35.280Z,1857.03
2022-10-02T23:55:08.222Z,1851.60
2022-10-02T23:57:47.173Z,1906.70
